Meteo Giornale » Osservazioni meteo Italia » Pian Rosa

ore: 01:55 - Osservazioni Meteo Pian Rosa
Lat. 45° 56' N Lon. 7° 42' E Alt. 3480 metri s.l.m.

nebbia Europe/Rome

-10 °C

Nebbia Congelantesi

Temp. 24 Ore

-14 °C

-10 °C

Nord-Est

13 Km/h

Dew point -11 °C

Umidità 92 %

Visibilità  0.8 Km

Il sole sorge alle ore 07:33

Il sole tramonta alle ore 16:55

Data e Ora Cielo e Fenomeni T °C DP °C Um. % Pres. hPa Vis. km Vento km/h
Oggi h: 01:55 nebbia Nebbia Congelantesi -10 -11 92 1008 0.8 NE 13
Oggi h: 00:55 nebbia Nebbia Congelantesi -10 -11 92 1008 0.8 NO 7.4
Ieri h: 23:55 nebbia Nebbia Congelantesi -10 -11 92 1008 0.8 E/SE 7.4
Ieri h: 22:55 nebbia Nebbia Congelantesi -10 -11 92 1008 0.8 E 9.3
Ieri h: 21:55 nebbia Nebbia Congelantesi -10 -19 47 1008 0.8 SE 22.2
Ieri h: 18:55 coperto Coperto -10 -15 66 1006 10 S 22.2
Ieri h: 17:55 coperto Coperto -12 -13 92 1006 10 SO 11.1
Ieri h: 16:55 molto_nuvoloso Molto Nuvoloso -12 -18 60 1006 10 S/SE 20.3
Ieri h: 15:55 coperto Coperto -12 -14 84 1005 10 S 22.2
Ieri h: 14:55 molto_nuvoloso Molto Nuvoloso -12 -13 92 1004 10 S/SE 29.6
Ieri h: 13:55 molto_nuvoloso Molto Nuvoloso -11 -12 92 1004 10 S 31.5
Ieri h: 12:55 poco_nuvoloso Poco Nuvoloso -11 -12 92 1004 10 S 42.6
Ieri h: 11:55 poco_nuvoloso Poco Nuvoloso -11 -12 92 1003 10 S/SO 14.8
Ieri h: 10:55 sereno Sereno -11 -12 92 1003 10 SO 14.8
Ieri h: 09:55 sereno Sereno -13 -14 92 1003 10 S/SO 11.1
Ieri h: 08:55 poco_nuvoloso Poco Nuvoloso -14 -15 92 1002 10 S/SO 14.8
Ieri h: 07:55 poco_nuvoloso Poco Nuvoloso -14 -15 92 1002 10 S/SO 11.1
Ieri h: 06:55 poco_nuvoloso Poco Nuvoloso -14 -15 92 1001 10 S/SO 22.2
Ieri h: 04:55 nebbia Nebbia Congelantesi -14 -15 92 1000 0.8 S/SO 16.7
Ieri h: 03:55 nebbia Nebbia Congelantesi -13 -14 92 999 0.8 S/SO 14.8
Ieri h: 02:55 nebbia Nebbia Congelantesi -13 -14 92 999 0.8 S/SO 13